Time;durP1;ratioP1;P1;durP2;ratioP2;P2;SDS_P1;SDS_P2;PMS_P1;PMS_P2;Temp;Humidity;BMP_temperature;BMP_pressure;BME280_temperature;BME280_humidity;BME280_pressure;Samples;Min_cycle;Max_cycle;Signal;HPM_P1;HPM_P2
2021/07/29 00:00:30;;;;;;;2.2;2;;;;;;;15.22;100;95225.48;;;;
2021/07/29 00:01:32;;;;;;;2.2;2;;;;;;;15.22;100;95225.48;;;;
2021/07/29 00:02:32;;;;;;;2.2;2;;;;;;;15.22;100;95225.48;;;;
2021/07/29 00:03:33;;;;;;;2.2;2;;;;;;;15.22;100;95225.48;;;;
2021/07/29 00:04:34;;;;;;;2.2;2;;;;;;;15.22;100;95225.48;;;;
2021/07/29 00:05:34;;;;;;;2.2;2;;;;;;;15.22;100;95225.48;;;;
2021/07/29 00:06:37;;;;;;;2.2;2;;;;;;;15.22;100;95225.48;;;;
2021/07/29 00:07:37;;;;;;;2.2;2;;;;;;;15.22;100;95225.48;;;;
2021/07/29 00:08:38;;;;;;;2.2;2;;;;;;;15.22;100;95225.48;;;;
2021/07/29 00:09:38;;;;;;;2.2;2;;;;;;;15.22;100;95225.48;;;;
2021/07/29 00:10:39;;;;;;;2.2;1.95;;;;;;;15.15;100;95217.29;;;;
2021/07/29 00:11:39;;;;;;;2.2;1.95;;;;;;;15.15;100;95217.29;;;;
2021/07/29 00:12:40;;;;;;;2.2;1.95;;;;;;;15.15;100;95217.29;;;;
2021/07/29 00:13:40;;;;;;;2.2;1.95;;;;;;;15.15;100;95217.29;;;;
2021/07/29 00:14:41;;;;;;;2.2;1.95;;;;;;;15.15;100;95217.29;;;;
2021/07/29 00:15:43;;;;;;;2.2;1.95;;;;;;;15.15;100;95217.29;;;;
2021/07/29 00:16:45;;;;;;;2.2;1.95;;;;;;;15.15;100;95217.29;;;;
2021/07/29 00:22:56;;;;;;;2.1;2;;;;;;;15;100;95231.67;;;;
2021/07/29 00:23:59;;;;;;;2.1;2;;;;;;;15;100;95231.67;;;;
2021/07/29 00:25:00;;;;;;;2.1;2;;;;;;;15;100;95231.67;;;;
2021/07/29 00:26:01;;;;;;;2.1;2;;;;;;;15;100;95231.67;;;;
2021/07/29 00:27:01;;;;;;;2.1;2;;;;;;;15;100;95231.67;;;;
2021/07/29 00:28:02;;;;;;;2.1;2;;;;;;;15;100;95231.67;;;;
2021/07/29 00:29:03;;;;;;;2.1;2;;;;;;;15;100;95231.67;;;;
2021/07/29 00:30:03;;;;;;;2.1;2;;;;;;;15;100;95231.67;;;;
2021/07/29 00:31:05;;;;;;;2.1;2;;;;;;;15;100;95231.67;;;;
2021/07/29 00:32:06;;;;;;;3.7;2;;;;;;;14.92;100;95234.45;;;;
2021/07/29 00:33:07;;;;;;;3.7;2;;;;;;;14.92;100;95234.45;;;;
2021/07/29 00:34:07;;;;;;;3.7;2;;;;;;;14.92;100;95234.45;;;;
2021/07/29 00:35:07;;;;;;;3.7;2;;;;;;;14.92;100;95234.45;;;;
2021/07/29 00:36:10;;;;;;;3.7;2;;;;;;;14.92;100;95234.45;;;;
2021/07/29 00:37:19;;;;;;;3.7;2;;;;;;;14.92;100;95234.45;;;;
2021/07/29 00:38:19;;;;;;;3.7;2;;;;;;;14.92;100;95234.45;;;;
2021/07/29 00:39:20;;;;;;;3.7;2;;;;;;;14.92;100;95234.45;;;;
2021/07/29 00:40:20;;;;;;;3.7;2;;;;;;;14.92;100;95234.45;;;;
2021/07/29 00:41:22;;;;;;;3.7;2;;;;;;;14.92;100;95234.45;;;;
2021/07/29 00:42:22;;;;;;;3.7;2;;;;;;;14.92;100;95234.45;;;;
2021/07/29 00:43:23;;;;;;;3.7;2;;;;;;;14.92;100;95234.45;;;;
2021/07/29 00:44:24;;;;;;;3.7;2;;;;;;;14.92;100;95234.45;;;;
2021/07/29 00:45:24;;;;;;;3.7;2;;;;;;;14.92;100;95234.45;;;;
2021/07/29 00:46:25;;;;;;;3.7;2;;;;;;;14.92;100;95234.45;;;;
2021/07/29 00:47:26;;;;;;;3.7;2;;;;;;;14.92;100;95234.45;;;;
2021/07/29 00:48:27;;;;;;;3.7;2;;;;;;;14.92;100;95234.45;;;;
2021/07/29 00:49:27;;;;;;;3.7;2;;;;;;;14.92;100;95234.45;;;;
2021/07/29 00:50:28;;;;;;;3.7;2;;;;;;;14.92;100;95234.45;;;;
2021/07/29 00:51:29;;;;;;;3.7;2;;;;;;;14.92;100;95234.45;;;;
2021/07/29 00:52:29;;;;;;;3.7;2;;;;;;;14.92;100;95234.45;;;;
2021/07/29 00:53:30;;;;;;;2.3;2.1;;;;;;;14.64;100;95246.12;;;;
2021/07/29 00:54:31;;;;;;;2.3;2.1;;;;;;;14.64;100;95246.12;;;;
2021/07/29 00:55:32;;;;;;;2.3;2.1;;;;;;;14.64;100;95246.12;;;;
2021/07/29 00:56:32;;;;;;;2.3;2.1;;;;;;;14.64;100;95246.12;;;;
2021/07/29 00:57:33;;;;;;;2.3;2.1;;;;;;;14.64;100;95246.12;;;;
2021/07/29 00:58:34;;;;;;;2.3;2.1;;;;;;;14.64;100;95246.12;;;;
2021/07/29 00:59:35;;;;;;;2.3;2.1;;;;;;;14.64;100;95246.12;;;;
2021/07/29 01:00:36;;;;;;;2.3;2.1;;;;;;;14.64;100;95246.12;;;;
2021/07/29 01:01:37;;;;;;;2.3;2.1;;;;;;;14.64;100;95246.12;;;;
2021/07/29 01:02:37;;;;;;;2.3;2.1;;;;;;;14.64;100;95246.12;;;;
2021/07/29 01:03:39;;;;;;;2.3;2.1;;;;;;;14.64;100;95246.12;;;;
2021/07/29 01:04:39;;;;;;;2.3;2.1;;;;;;;14.52;100;95233.25;;;;
2021/07/29 01:05:40;;;;;;;2.3;2.1;;;;;;;14.52;100;95233.25;;;;
2021/07/29 01:06:41;;;;;;;2.3;2.1;;;;;;;14.52;100;95233.25;;;;
2021/07/29 01:07:42;;;;;;;2.3;2.1;;;;;;;14.52;100;95233.25;;;;
2021/07/29 01:08:43;;;;;;;2.3;2.1;;;;;;;14.52;100;95233.25;;;;
2021/07/29 01:10:17;;;;;;;2.3;2.1;;;;;;;14.52;100;95233.25;;;;
2021/07/29 01:11:17;;;;;;;2.3;2.1;;;;;;;14.52;100;95233.25;;;;
2021/07/29 01:12:18;;;;;;;2.3;2.1;;;;;;;14.52;100;95233.25;;;;
2021/07/29 01:13:18;;;;;;;2.3;2.1;;;;;;;14.52;100;95233.25;;;;
2021/07/29 01:14:19;;;;;;;2.3;2.1;;;;;;;14.52;100;95233.25;;;;
2021/07/29 01:15:19;;;;;;;2.5;2.3;;;;;;;14.48;100;95221.3;;;;
2021/07/29 01:16:20;;;;;;;2.5;2.3;;;;;;;14.48;100;95221.3;;;;
2021/07/29 01:17:20;;;;;;;2.5;2.3;;;;;;;14.48;100;95221.3;;;;
2021/07/29 01:18:21;;;;;;;2.5;2.3;;;;;;;14.48;100;95221.3;;;;
2021/07/29 01:19:21;;;;;;;2.5;2.3;;;;;;;14.48;100;95221.3;;;;
2021/07/29 01:20:26;;;;;;;2.5;2.3;;;;;;;14.48;100;95221.3;;;;
2021/07/29 01:21:27;;;;;;;2.5;2.3;;;;;;;14.48;100;95221.3;;;;
2021/07/29 01:22:28;;;;;;;2.5;2.3;;;;;;;14.48;100;95221.3;;;;
2021/07/29 01:23:31;;;;;;;2.5;2.3;;;;;;;14.48;100;95221.3;;;;
2021/07/29 01:24:31;;;;;;;2.5;2.3;;;;;;;14.48;100;95221.3;;;;
2021/07/29 01:25:31;;;;;;;4.5;2.2;;;;;;;14.4;100;95230.74;;;;
2021/07/29 01:26:32;;;;;;;4.5;2.2;;;;;;;14.4;100;95230.74;;;;
2021/07/29 01:27:34;;;;;;;4.5;2.2;;;;;;;14.4;100;95230.74;;;;
2021/07/29 01:28:36;;;;;;;4.5;2.2;;;;;;;14.4;100;95230.74;;;;
2021/07/29 01:29:37;;;;;;;4.5;2.2;;;;;;;14.4;100;95230.74;;;;
2021/07/29 01:30:38;;;;;;;4.5;2.2;;;;;;;14.4;100;95230.74;;;;
2021/07/29 01:31:38;;;;;;;4.5;2.2;;;;;;;14.4;100;95230.74;;;;
2021/07/29 01:32:40;;;;;;;4.5;2.2;;;;;;;14.4;100;95230.74;;;;
2021/07/29 01:33:40;;;;;;;4.5;2.2;;;;;;;14.4;100;95230.74;;;;
2021/07/29 01:34:41;;;;;;;4.5;2.2;;;;;;;14.4;100;95230.74;;;;
2021/07/29 01:35:41;;;;;;;4.5;2.2;;;;;;;14.4;100;95230.74;;;;
2021/07/29 01:36:43;;;;;;;2.4;2.05;;;;;;;14.39;100;95226.93;;;;
2021/07/29 01:37:44;;;;;;;2.4;2.05;;;;;;;14.39;100;95226.93;;;;
2021/07/29 01:38:44;;;;;;;2.4;2.05;;;;;;;14.39;100;95226.93;;;;
2021/07/29 01:39:45;;;;;;;2.4;2.05;;;;;;;14.39;100;95226.93;;;;
2021/07/29 01:40:45;;;;;;;2.4;2.05;;;;;;;14.39;100;95226.93;;;;
2021/07/29 01:41:46;;;;;;;2.4;2.05;;;;;;;14.39;100;95226.93;;;;
2021/07/29 01:42:46;;;;;;;2.4;2.05;;;;;;;14.39;100;95226.93;;;;
2021/07/29 01:43:46;;;;;;;2.4;2.05;;;;;;;14.39;100;95226.93;;;;
2021/07/29 01:44:47;;;;;;;2.4;2.05;;;;;;;14.39;100;95226.93;;;;
2021/07/29 01:45:47;;;;;;;2.4;2.05;;;;;;;14.39;100;95226.93;;;;
2021/07/29 01:46:48;;;;;;;2.3;2.1;;;;;;;14.3;100;95227.13;;;;
2021/07/29 01:47:48;;;;;;;2.3;2.1;;;;;;;14.3;100;95227.13;;;;
2021/07/29 01:48:49;;;;;;;2.3;2.1;;;;;;;14.3;100;95227.13;;;;
2021/07/29 01:49:49;;;;;;;2.3;2.1;;;;;;;14.3;100;95227.13;;;;
2021/07/29 01:50:50;;;;;;;2.3;2.1;;;;;;;14.3;100;95227.13;;;;
2021/07/29 01:51:50;;;;;;;2.3;2.1;;;;;;;14.3;100;95227.13;;;;
2021/07/29 01:52:51;;;;;;;2.3;2.1;;;;;;;14.3;100;95227.13;;;;
2021/07/29 01:53:51;;;;;;;2.3;2.1;;;;;;;14.3;100;95227.13;;;;
2021/07/29 01:54:52;;;;;;;2.3;2.1;;;;;;;14.3;100;95227.13;;;;
2021/07/29 01:55:52;;;;;;;2.3;2.1;;;;;;;14.3;100;95227.13;;;;
2021/07/29 01:56:53;;;;;;;2.3;2.1;;;;;;;14.3;100;95227.13;;;;
2021/07/29 01:57:53;;;;;;;2.1;1.95;;;;;;;14.34;100;95228.23;;;;
2021/07/29 01:58:53;;;;;;;2.1;1.95;;;;;;;14.34;100;95228.23;;;;
2021/07/29 01:59:54;;;;;;;2.1;1.95;;;;;;;14.34;100;95228.23;;;;
2021/07/29 02:00:54;;;;;;;2.1;1.95;;;;;;;14.34;100;95228.23;;;;
2021/07/29 02:01:55;;;;;;;2.1;1.95;;;;;;;14.34;100;95228.23;;;;
2021/07/29 02:02:55;;;;;;;2.1;1.95;;;;;;;14.34;100;95228.23;;;;
2021/07/29 02:03:56;;;;;;;2.1;1.95;;;;;;;14.34;100;95228.23;;;;
2021/07/29 02:04:56;;;;;;;2.1;1.95;;;;;;;14.34;100;95228.23;;;;
2021/07/29 02:05:57;;;;;;;2.1;1.95;;;;;;;14.34;100;95228.23;;;;
2021/07/29 02:07:01;;;;;;;2.1;1.95;;;;;;;14.34;100;95228.23;;;;
2021/07/29 02:08:02;;;;;;;2.5;2.3;;;;;;;14.43;100;95225.31;;;;
2021/07/29 02:09:02;;;;;;;2.5;2.3;;;;;;;14.43;100;95225.31;;;;
2021/07/29 02:10:04;;;;;;;2.5;2.3;;;;;;;14.43;100;95225.31;;;;
2021/07/29 02:11:05;;;;;;;2.5;2.3;;;;;;;14.43;100;95225.31;;;;
2021/07/29 02:12:06;;;;;;;2.5;2.3;;;;;;;14.43;100;95225.31;;;;
2021/07/29 02:13:07;;;;;;;2.5;2.3;;;;;;;14.43;100;95225.31;;;;
2021/07/29 02:14:07;;;;;;;2.5;2.3;;;;;;;14.43;100;95225.31;;;;
2021/07/29 02:15:08;;;;;;;2.5;2.3;;;;;;;14.43;100;95225.31;;;;
2021/07/29 02:16:10;;;;;;;2.5;2.3;;;;;;;14.43;100;95225.31;;;;
2021/07/29 02:17:11;;;;;;;2.5;2.3;;;;;;;14.43;100;95225.31;;;;
2021/07/29 02:18:11;;;;;;;2.5;2.3;;;;;;;14.43;100;95225.31;;;;
2021/07/29 02:19:12;;;;;;;2.25;2.05;;;;;;;14.61;100;95222.17;;;;
2021/07/29 02:20:12;;;;;;;2.25;2.05;;;;;;;14.61;100;95222.17;;;;
2021/07/29 02:21:13;;;;;;;2.25;2.05;;;;;;;14.61;100;95222.17;;;;
2021/07/29 02:22:14;;;;;;;2.25;2.05;;;;;;;14.61;100;95222.17;;;;
2021/07/29 02:23:15;;;;;;;2.25;2.05;;;;;;;14.61;100;95222.17;;;;
2021/07/29 02:24:16;;;;;;;2.25;2.05;;;;;;;14.61;100;95222.17;;;;
2021/07/29 02:25:16;;;;;;;2.25;2.05;;;;;;;14.61;100;95222.17;;;;
2021/07/29 02:26:17;;;;;;;2.25;2.05;;;;;;;14.61;100;95222.17;;;;
2021/07/29 02:27:18;;;;;;;2.25;2.05;;;;;;;14.61;100;95222.17;;;;
2021/07/29 02:28:19;;;;;;;2.25;2.05;;;;;;;14.61;100;95222.17;;;;
2021/07/29 02:29:19;;;;;;;3.15;2.2;;;;;;;14.61;100;95230.74;;;;
2021/07/29 02:30:20;;;;;;;3.15;2.2;;;;;;;14.61;100;95230.74;;;;
2021/07/29 02:31:20;;;;;;;3.15;2.2;;;;;;;14.61;100;95230.74;;;;
2021/07/29 02:32:21;;;;;;;3.15;2.2;;;;;;;14.61;100;95230.74;;;;
2021/07/29 02:33:21;;;;;;;3.15;2.2;;;;;;;14.61;100;95230.74;;;;
2021/07/29 02:34:22;;;;;;;3.15;2.2;;;;;;;14.61;100;95230.74;;;;
2021/07/29 02:35:22;;;;;;;3.15;2.2;;;;;;;14.61;100;95230.74;;;;
2021/07/29 02:36:23;;;;;;;3.15;2.2;;;;;;;14.61;100;95230.74;;;;
2021/07/29 02:37:23;;;;;;;3.15;2.2;;;;;;;14.61;100;95230.74;;;;
2021/07/29 02:38:24;;;;;;;3.15;2.2;;;;;;;14.61;100;95230.74;;;;
2021/07/29 02:39:24;;;;;;;3.15;2.2;;;;;;;14.61;100;95230.74;;;;
2021/07/29 02:40:25;;;;;;;1.8;1.7;;;;;;;14.6;100;95232.25;;;;
2021/07/29 02:41:25;;;;;;;1.8;1.7;;;;;;;14.6;100;95232.25;;;;
2021/07/29 02:42:27;;;;;;;1.8;1.7;;;;;;;14.6;100;95232.25;;;;
2021/07/29 02:43:27;;;;;;;1.8;1.7;;;;;;;14.6;100;95232.25;;;;
2021/07/29 02:44:28;;;;;;;1.8;1.7;;;;;;;14.6;100;95232.25;;;;
2021/07/29 02:45:28;;;;;;;1.8;1.7;;;;;;;14.6;100;95232.25;;;;
2021/07/29 02:46:29;;;;;;;1.8;1.7;;;;;;;14.6;100;95232.25;;;;
2021/07/29 02:47:29;;;;;;;1.8;1.7;;;;;;;14.6;100;95232.25;;;;
2021/07/29 02:48:30;;;;;;;1.8;1.7;;;;;;;14.6;100;95232.25;;;;
2021/07/29 02:49:30;;;;;;;1.8;1.7;;;;;;;14.6;100;95232.25;;;;
2021/07/29 02:50:32;;;;;;;2.2;2;;;;;;;14.52;100;95250.9;;;;
2021/07/29 02:51:32;;;;;;;2.2;2;;;;;;;14.52;100;95250.9;;;;
2021/07/29 02:52:33;;;;;;;2.2;2;;;;;;;14.52;100;95250.9;;;;
2021/07/29 02:53:34;;;;;;;2.2;2;;;;;;;14.52;100;95250.9;;;;
2021/07/29 02:54:35;;;;;;;2.2;2;;;;;;;14.52;100;95250.9;;;;
2021/07/29 02:55:35;;;;;;;2.2;2;;;;;;;14.52;100;95250.9;;;;
2021/07/29 02:56:36;;;;;;;2.2;2;;;;;;;14.52;100;95250.9;;;;
2021/07/29 02:57:36;;;;;;;2.2;2;;;;;;;14.52;100;95250.9;;;;
2021/07/29 02:58:37;;;;;;;2.2;2;;;;;;;14.52;100;95250.9;;;;
2021/07/29 02:59:37;;;;;;;2.2;2;;;;;;;14.52;100;95250.9;;;;
2021/07/29 03:00:38;;;;;;;2.2;2;;;;;;;14.52;100;95250.9;;;;
2021/07/29 03:01:38;;;;;;;2;1.9;;;;;;;14.54;100;95241.43;;;;
2021/07/29 03:02:39;;;;;;;2;1.9;;;;;;;14.54;100;95241.43;;;;
2021/07/29 03:03:39;;;;;;;2;1.9;;;;;;;14.54;100;95241.43;;;;
2021/07/29 03:04:40;;;;;;;2;1.9;;;;;;;14.54;100;95241.43;;;;
2021/07/29 03:05:40;;;;;;;2;1.9;;;;;;;14.54;100;95241.43;;;;
2021/07/29 03:06:41;;;;;;;2;1.9;;;;;;;14.54;100;95241.43;;;;
2021/07/29 03:07:41;;;;;;;2;1.9;;;;;;;14.54;100;95241.43;;;;
2021/07/29 03:08:42;;;;;;;2;1.9;;;;;;;14.54;100;95241.43;;;;
2021/07/29 03:09:42;;;;;;;2;1.9;;;;;;;14.54;100;95241.43;;;;
2021/07/29 03:10:43;;;;;;;2;1.9;;;;;;;14.54;100;95241.43;;;;
2021/07/29 03:11:45;;;;;;;2;1.9;;;;;;;14.54;100;95241.43;;;;
2021/07/29 03:12:45;;;;;;;2;1.8;;;;;;;14.56;100;95245.24;;;;
2021/07/29 03:13:46;;;;;;;2;1.8;;;;;;;14.56;100;95245.24;;;;
2021/07/29 03:14:46;;;;;;;2;1.8;;;;;;;14.56;100;95245.24;;;;
2021/07/29 03:15:47;;;;;;;2;1.8;;;;;;;14.56;100;95245.24;;;;
2021/07/29 03:16:47;;;;;;;2;1.8;;;;;;;14.56;100;95245.24;;;;
2021/07/29 03:17:48;;;;;;;2;1.8;;;;;;;14.56;100;95245.24;;;;
2021/07/29 03:18:48;;;;;;;2;1.8;;;;;;;14.56;100;95245.24;;;;
2021/07/29 03:19:49;;;;;;;2;1.8;;;;;;;14.56;100;95245.24;;;;
2021/07/29 03:20:49;;;;;;;2;1.8;;;;;;;14.56;100;95245.24;;;;
2021/07/29 03:21:50;;;;;;;2;1.8;;;;;;;14.56;100;95245.24;;;;
2021/07/29 03:22:50;;;;;;;1.75;1.65;;;;;;;14.65;100;95243.67;;;;
2021/07/29 03:23:51;;;;;;;1.75;1.65;;;;;;;14.65;100;95243.67;;;;
2021/07/29 03:24:52;;;;;;;1.75;1.65;;;;;;;14.65;100;95243.67;;;;
2021/07/29 03:25:52;;;;;;;1.75;1.65;;;;;;;14.65;100;95243.67;;;;
2021/07/29 03:26:53;;;;;;;1.75;1.65;;;;;;;14.65;100;95243.67;;;;
2021/07/29 03:27:54;;;;;;;1.75;1.65;;;;;;;14.65;100;95243.67;;;;
2021/07/29 03:28:54;;;;;;;1.75;1.65;;;;;;;14.65;100;95243.67;;;;
2021/07/29 03:29:55;;;;;;;1.75;1.65;;;;;;;14.65;100;95243.67;;;;
2021/07/29 03:30:55;;;;;;;1.75;1.65;;;;;;;14.65;100;95243.67;;;;
2021/07/29 03:31:56;;;;;;;1.75;1.65;;;;;;;14.65;100;95243.67;;;;
2021/07/29 03:32:57;;;;;;;1.75;1.65;;;;;;;14.65;100;95243.67;;;;
2021/07/29 03:33:57;;;;;;;1.7;1.55;;;;;;;14.72;100;95251.47;;;;
2021/07/29 03:34:58;;;;;;;1.7;1.55;;;;;;;14.72;100;95251.47;;;;
2021/07/29 03:35:58;;;;;;;1.7;1.55;;;;;;;14.72;100;95251.47;;;;
2021/07/29 03:36:59;;;;;;;1.7;1.55;;;;;;;14.72;100;95251.47;;;;
2021/07/29 03:37:59;;;;;;;1.7;1.55;;;;;;;14.72;100;95251.47;;;;
2021/07/29 03:39:05;;;;;;;1.7;1.55;;;;;;;14.72;100;95251.47;;;;
2021/07/29 03:40:05;;;;;;;1.7;1.55;;;;;;;14.72;100;95251.47;;;;
2021/07/29 03:41:07;;;;;;;1.7;1.55;;;;;;;14.72;100;95251.47;;;;
2021/07/29 03:42:08;;;;;;;1.7;1.55;;;;;;;14.72;100;95251.47;;;;
2021/07/29 03:43:09;;;;;;;1.7;1.55;;;;;;;14.72;100;95251.47;;;;
2021/07/29 03:44:10;;;;;;;2.25;1.65;;;;;;;14.85;100;95240.67;;;;
2021/07/29 03:45:11;;;;;;;2.25;1.65;;;;;;;14.85;100;95240.67;;;;
2021/07/29 03:46:11;;;;;;;2.25;1.65;;;;;;;14.85;100;95240.67;;;;
2021/07/29 03:47:12;;;;;;;2.25;1.65;;;;;;;14.85;100;95240.67;;;;
2021/07/29 03:48:12;;;;;;;2.25;1.65;;;;;;;14.85;100;95240.67;;;;
2021/07/29 03:49:13;;;;;;;2.25;1.65;;;;;;;14.85;100;95240.67;;;;
2021/07/29 03:50:13;;;;;;;2.25;1.65;;;;;;;14.85;100;95240.67;;;;
2021/07/29 03:51:14;;;;;;;2.25;1.65;;;;;;;14.85;100;95240.67;;;;
2021/07/29 03:52:15;;;;;;;2.25;1.65;;;;;;;14.85;100;95240.67;;;;
2021/07/29 03:53:15;;;;;;;2.25;1.65;;;;;;;14.85;100;95240.67;;;;
2021/07/29 03:54:16;;;;;;;2.25;1.65;;;;;;;14.85;100;95240.67;;;;
2021/07/29 03:55:16;;;;;;;1.8;1.7;;;;;;;14.72;100;95245.2;;;;
2021/07/29 03:56:17;;;;;;;1.8;1.7;;;;;;;14.72;100;95245.2;;;;
2021/07/29 03:57:19;;;;;;;1.8;1.7;;;;;;;14.72;100;95245.2;;;;
2021/07/29 03:58:20;;;;;;;1.8;1.7;;;;;;;14.72;100;95245.2;;;;
2021/07/29 03:59:20;;;;;;;1.8;1.7;;;;;;;14.72;100;95245.2;;;;
2021/07/29 04:00:21;;;;;;;1.8;1.7;;;;;;;14.72;100;95245.2;;;;
2021/07/29 04:01:21;;;;;;;1.8;1.7;;;;;;;14.72;100;95245.2;;;;
2021/07/29 04:02:22;;;;;;;1.8;1.7;;;;;;;14.72;100;95245.2;;;;
2021/07/29 04:03:22;;;;;;;1.8;1.7;;;;;;;14.72;100;95245.2;;;;
2021/07/29 04:04:23;;;;;;;1.8;1.7;;;;;;;14.72;100;95245.2;;;;
2021/07/29 04:05:23;;;;;;;1.85;1.45;;;;;;;14.65;100;95246.39;;;;
2021/07/29 04:06:24;;;;;;;1.85;1.45;;;;;;;14.65;100;95246.39;;;;
2021/07/29 04:07:24;;;;;;;1.85;1.45;;;;;;;14.65;100;95246.39;;;;
2021/07/29 04:08:25;;;;;;;1.85;1.45;;;;;;;14.65;100;95246.39;;;;
2021/07/29 04:09:25;;;;;;;1.85;1.45;;;;;;;14.65;100;95246.39;;;;
2021/07/29 04:10:26;;;;;;;1.85;1.45;;;;;;;14.65;100;95246.39;;;;
2021/07/29 04:11:26;;;;;;;1.85;1.45;;;;;;;14.65;100;95246.39;;;;
2021/07/29 04:12:27;;;;;;;1.85;1.45;;;;;;;14.65;100;95246.39;;;;
2021/07/29 04:13:27;;;;;;;1.85;1.45;;;;;;;14.65;100;95246.39;;;;
2021/07/29 04:14:28;;;;;;;1.85;1.45;;;;;;;14.65;100;95246.39;;;;
2021/07/29 04:15:28;;;;;;;1.85;1.45;;;;;;;14.65;100;95246.39;;;;
2021/07/29 04:16:29;;;;;;;2.2;1.7;;;;;;;14.71;100;95252.56;;;;
2021/07/29 04:17:29;;;;;;;2.2;1.7;;;;;;;14.71;100;95252.56;;;;
2021/07/29 04:18:31;;;;;;;2.2;1.7;;;;;;;14.71;100;95252.56;;;;
2021/07/29 04:19:32;;;;;;;2.2;1.7;;;;;;;14.71;100;95252.56;;;;
2021/07/29 04:20:34;;;;;;;2.2;1.7;;;;;;;14.71;100;95252.56;;;;
2021/07/29 04:21:34;;;;;;;2.2;1.7;;;;;;;14.71;100;95252.56;;;;
2021/07/29 04:22:35;;;;;;;2.2;1.7;;;;;;;14.71;100;95252.56;;;;
2021/07/29 04:23:35;;;;;;;2.2;1.7;;;;;;;14.71;100;95252.56;;;;
2021/07/29 04:24:36;;;;;;;2.2;1.7;;;;;;;14.71;100;95252.56;;;;
2021/07/29 04:25:37;;;;;;;2.2;1.7;;;;;;;14.71;100;95252.56;;;;
2021/07/29 04:26:40;;;;;;;1.8;1.7;;;;;;;14.93;100;95253.78;;;;
2021/07/29 04:27:40;;;;;;;1.8;1.7;;;;;;;14.93;100;95253.78;;;;
2021/07/29 04:28:41;;;;;;;1.8;1.7;;;;;;;14.93;100;95253.78;;;;
2021/07/29 04:29:41;;;;;;;1.8;1.7;;;;;;;14.93;100;95253.78;;;;
2021/07/29 04:30:42;;;;;;;1.8;1.7;;;;;;;14.93;100;95253.78;;;;
2021/07/29 04:31:42;;;;;;;1.8;1.7;;;;;;;14.93;100;95253.78;;;;
2021/07/29 04:32:43;;;;;;;1.8;1.7;;;;;;;14.93;100;95253.78;;;;
2021/07/29 04:33:43;;;;;;;1.8;1.7;;;;;;;14.93;100;95253.78;;;;
2021/07/29 04:34:44;;;;;;;1.8;1.7;;;;;;;14.93;100;95253.78;;;;
2021/07/29 04:35:44;;;;;;;1.8;1.7;;;;;;;14.93;100;95253.78;;;;
2021/07/29 04:36:45;;;;;;;1.8;1.7;;;;;;;14.93;100;95253.78;;;;
2021/07/29 04:37:46;;;;;;;1.4;1.3;;;;;;;15.11;100;95262.3;;;;
2021/07/29 04:38:46;;;;;;;1.4;1.3;;;;;;;15.11;100;95262.3;;;;
2021/07/29 04:39:47;;;;;;;1.4;1.3;;;;;;;15.11;100;95262.3;;;;
2021/07/29 04:40:47;;;;;;;1.4;1.3;;;;;;;15.11;100;95262.3;;;;
2021/07/29 04:41:48;;;;;;;1.4;1.3;;;;;;;15.11;100;95262.3;;;;
2021/07/29 04:42:48;;;;;;;1.4;1.3;;;;;;;15.11;100;95262.3;;;;
2021/07/29 04:43:49;;;;;;;1.4;1.3;;;;;;;15.11;100;95262.3;;;;
2021/07/29 04:44:49;;;;;;;1.4;1.3;;;;;;;15.11;100;95262.3;;;;
2021/07/29 04:45:51;;;;;;;1.4;1.3;;;;;;;15.11;100;95262.3;;;;
2021/07/29 04:46:52;;;;;;;1.4;1.3;;;;;;;15.11;100;95262.3;;;;
2021/07/29 04:47:52;;;;;;;1.6;1.4;;;;;;;15.36;100;95260.25;;;;
2021/07/29 04:48:52;;;;;;;1.6;1.4;;;;;;;15.36;100;95260.25;;;;
2021/07/29 04:49:53;;;;;;;1.6;1.4;;;;;;;15.36;100;95260.25;;;;
2021/07/29 04:50:53;;;;;;;1.6;1.4;;;;;;;15.36;100;95260.25;;;;
2021/07/29 04:51:54;;;;;;;1.6;1.4;;;;;;;15.36;100;95260.25;;;;
2021/07/29 04:52:54;;;;;;;1.6;1.4;;;;;;;15.36;100;95260.25;;;;
2021/07/29 04:53:55;;;;;;;1.6;1.4;;;;;;;15.36;100;95260.25;;;;
2021/07/29 04:54:55;;;;;;;1.6;1.4;;;;;;;15.36;100;95260.25;;;;
2021/07/29 04:55:56;;;;;;;1.6;1.4;;;;;;;15.36;100;95260.25;;;;
2021/07/29 04:56:56;;;;;;;1.6;1.4;;;;;;;15.36;100;95260.25;;;;
2021/07/29 04:57:57;;;;;;;1.6;1.4;;;;;;;15.36;100;95260.25;;;;
2021/07/29 04:59:01;;;;;;;1.6;1.2;;;;;;;15.4;100;95258.2;;;;
2021/07/29 05:00:02;;;;;;;1.6;1.2;;;;;;;15.4;100;95258.2;;;;
2021/07/29 05:01:04;;;;;;;1.6;1.2;;;;;;;15.4;100;95258.2;;;;
2021/07/29 05:02:05;;;;;;;1.6;1.2;;;;;;;15.4;100;95258.2;;;;
2021/07/29 05:03:05;;;;;;;1.6;1.2;;;;;;;15.4;100;95258.2;;;;
2021/07/29 05:04:06;;;;;;;1.6;1.2;;;;;;;15.4;100;95258.2;;;;
2021/07/29 05:05:06;;;;;;;1.6;1.2;;;;;;;15.4;100;95258.2;;;;
2021/07/29 05:06:08;;;;;;;1.6;1.2;;;;;;;15.4;100;95258.2;;;;
2021/07/29 05:07:08;;;;;;;1.6;1.2;;;;;;;15.4;100;95258.2;;;;
2021/07/29 05:08:11;;;;;;;1.6;1.2;;;;;;;15.4;100;95258.2;;;;
2021/07/29 05:09:11;;;;;;;1.6;1.2;;;;;;;15.4;100;95258.2;;;;
2021/07/29 05:10:12;;;;;;;1.6;1.2;;;;;;;15.4;100;95258.2;;;;
2021/07/29 05:11:12;;;;;;;1.6;1.2;;;;;;;15.4;100;95258.2;;;;
2021/07/29 05:12:13;;;;;;;1.6;1.2;;;;;;;15.4;100;95258.2;;;;
2021/07/29 05:13:13;;;;;;;1.6;1.2;;;;;;;15.4;100;95258.2;;;;
2021/07/29 05:14:14;;;;;;;1.6;1.2;;;;;;;15.4;100;95258.2;;;;
2021/07/29 05:15:14;;;;;;;1.6;1.2;;;;;;;15.4;100;95258.2;;;;
2021/07/29 05:16:15;;;;;;;1.6;1.2;;;;;;;15.4;100;95258.2;;;;
2021/07/29 05:17:15;;;;;;;1.6;1.2;;;;;;;15.4;100;95258.2;;;;
2021/07/29 05:18:16;;;;;;;1.6;1.2;;;;;;;15.4;100;95258.2;;;;
2021/07/29 05:19:16;;;;;;;1.6;1.2;;;;;;;15.4;100;95258.2;;;;
2021/07/29 05:20:16;;;;;;;1.2;1.1;;;;;;;15.85;100;95263.81;;;;
2021/07/29 05:21:17;;;;;;;1.2;1.1;;;;;;;15.85;100;95263.81;;;;
2021/07/29 05:22:18;;;;;;;1.2;1.1;;;;;;;15.85;100;95263.81;;;;
2021/07/29 05:23:18;;;;;;;1.2;1.1;;;;;;;15.85;100;95263.81;;;;
2021/07/29 05:24:19;;;;;;;1.2;1.1;;;;;;;15.85;100;95263.81;;;;
2021/07/29 05:25:23;;;;;;;1.2;1.1;;;;;;;15.85;100;95263.81;;;;
2021/07/29 05:26:23;;;;;;;1.2;1.1;;;;;;;15.85;100;95263.81;;;;
2021/07/29 05:27:24;;;;;;;1.2;1.1;;;;;;;15.85;100;95263.81;;;;
2021/07/29 05:28:24;;;;;;;1.2;1.1;;;;;;;15.85;100;95263.81;;;;
2021/07/29 05:29:25;;;;;;;1.2;1.1;;;;;;;15.85;100;95263.81;;;;
2021/07/29 05:30:25;;;;;;;1.2;1.1;;;;;;;15.85;100;95263.81;;;;
2021/07/29 05:31:26;;;;;;;1.1;1;;;;;;;16.55;100;95263.92;;;;
2021/07/29 05:32:26;;;;;;;1.1;1;;;;;;;16.55;100;95263.92;;;;
2021/07/29 05:33:27;;;;;;;1.1;1;;;;;;;16.55;100;95263.92;;;;
2021/07/29 05:34:28;;;;;;;1.1;1;;;;;;;16.55;100;95263.92;;;;
2021/07/29 05:35:29;;;;;;;1.1;1;;;;;;;16.55;100;95263.92;;;;
2021/07/29 05:36:29;;;;;;;1.1;1;;;;;;;16.55;100;95263.92;;;;
2021/07/29 05:37:30;;;;;;;1.1;1;;;;;;;16.55;100;95263.92;;;;
2021/07/29 05:38:30;;;;;;;1.1;1;;;;;;;16.55;100;95263.92;;;;
2021/07/29 05:39:31;;;;;;;1.1;1;;;;;;;16.55;100;95263.92;;;;
2021/07/29 05:40:32;;;;;;;1.1;1;;;;;;;16.55;100;95263.92;;;;
2021/07/29 05:41:33;;;;;;;1.2;1.1;;;;;;;16.82;100;95264.98;;;;
2021/07/29 05:42:33;;;;;;;1.2;1.1;;;;;;;16.82;100;95264.98;;;;
2021/07/29 05:43:34;;;;;;;1.2;1.1;;;;;;;16.82;100;95264.98;;;;
2021/07/29 05:44:36;;;;;;;1.2;1.1;;;;;;;16.82;100;95264.98;;;;
2021/07/29 05:45:38;;;;;;;1.2;1.1;;;;;;;16.82;100;95264.98;;;;
2021/07/29 05:46:39;;;;;;;1.2;1.1;;;;;;;16.82;100;95264.98;;;;
2021/07/29 05:47:39;;;;;;;1.2;1.1;;;;;;;16.82;100;95264.98;;;;
2021/07/29 05:48:40;;;;;;;1.2;1.1;;;;;;;16.82;100;95264.98;;;;
2021/07/29 05:49:41;;;;;;;1.2;1.1;;;;;;;16.82;100;95264.98;;;;
2021/07/29 05:50:41;;;;;;;1.2;1.1;;;;;;;16.82;100;95264.98;;;;
2021/07/29 05:51:42;;;;;;;1.2;1.1;;;;;;;16.82;100;95264.98;;;;
2021/07/29 05:52:42;;;;;;;1.1;1;;;;;;;16.9;100;95273.16;;;;
2021/07/29 05:53:43;;;;;;;1.1;1;;;;;;;16.9;100;95273.16;;;;
2021/07/29 05:54:43;;;;;;;1.1;1;;;;;;;16.9;100;95273.16;;;;
2021/07/29 05:55:44;;;;;;;1.1;1;;;;;;;16.9;100;95273.16;;;;
2021/07/29 05:56:44;;;;;;;1.1;1;;;;;;;16.9;100;95273.16;;;;
2021/07/29 05:57:46;;;;;;;1.1;1;;;;;;;16.9;100;95273.16;;;;
2021/07/29 05:58:47;;;;;;;1.1;1;;;;;;;16.9;100;95273.16;;;;
2021/07/29 05:59:47;;;;;;;1.1;1;;;;;;;16.9;100;95273.16;;;;
2021/07/29 06:00:47;;;;;;;1.1;1;;;;;;;16.9;100;95273.16;;;;
2021/07/29 06:01:48;;;;;;;1.1;1;;;;;;;16.9;100;95273.16;;;;
2021/07/29 06:02:49;;;;;;;1.2;1.1;;;;;;;16.99;100;95266.88;;;;
2021/07/29 06:03:50;;;;;;;1.2;1.1;;;;;;;16.99;100;95266.88;;;;
2021/07/29 06:04:50;;;;;;;1.2;1.1;;;;;;;16.99;100;95266.88;;;;
2021/07/29 06:05:51;;;;;;;1.2;1.1;;;;;;;16.99;100;95266.88;;;;
2021/07/29 06:06:52;;;;;;;1.2;1.1;;;;;;;16.99;100;95266.88;;;;
2021/07/29 06:07:52;;;;;;;1.2;1.1;;;;;;;16.99;100;95266.88;;;;
2021/07/29 06:08:57;;;;;;;1.2;1.1;;;;;;;16.99;100;95266.88;;;;
2021/07/29 06:09:58;;;;;;;1.2;1.1;;;;;;;16.99;100;95266.88;;;;
2021/07/29 06:10:58;;;;;;;1.2;1.1;;;;;;;16.99;100;95266.88;;;;
2021/07/29 06:12:02;;;;;;;1.2;1.1;;;;;;;16.99;100;95266.88;;;;
2021/07/29 06:13:03;;;;;;;1.2;1.1;;;;;;;16.99;100;95266.88;;;;
2021/07/29 06:14:04;;;;;;;1.25;1.15;;;;;;;17.55;100;95277.93;;;;
2021/07/29 06:15:05;;;;;;;1.25;1.15;;;;;;;17.55;100;95277.93;;;;
2021/07/29 06:16:09;;;;;;;1.25;1.15;;;;;;;17.55;100;95277.93;;;;
2021/07/29 06:17:10;;;;;;;1.25;1.15;;;;;;;17.55;100;95277.93;;;;
2021/07/29 06:18:12;;;;;;;1.25;1.15;;;;;;;17.55;100;95277.93;;;;
2021/07/29 06:19:16;;;;;;;1.25;1.15;;;;;;;17.55;100;95277.93;;;;
2021/07/29 06:20:17;;;;;;;1.25;1.15;;;;;;;17.55;100;95277.93;;;;
2021/07/29 06:21:18;;;;;;;1.25;1.15;;;;;;;17.55;100;95277.93;;;;
2021/07/29 06:22:18;;;;;;;1.25;1.15;;;;;;;17.55;100;95277.93;;;;
2021/07/29 06:23:18;;;;;;;1.25;1.15;;;;;;;17.55;100;95277.93;;;;
2021/07/29 06:24:19;;;;;;;1.95;1.2;;;;;;;18.03;100;95274.53;;;;
2021/07/29 06:25:19;;;;;;;1.95;1.2;;;;;;;18.03;100;95274.53;;;;
2021/07/29 06:26:20;;;;;;;1.95;1.2;;;;;;;18.03;100;95274.53;;;;
2021/07/29 06:27:21;;;;;;;1.95;1.2;;;;;;;18.03;100;95274.53;;;;
2021/07/29 06:28:22;;;;;;;1.95;1.2;;;;;;;18.03;100;95274.53;;;;
2021/07/29 06:29:22;;;;;;;1.95;1.2;;;;;;;18.03;100;95274.53;;;;
2021/07/29 06:30:23;;;;;;;1.95;1.2;;;;;;;18.03;100;95274.53;;;;